createdAt,value
2023-03-01T15:21:30.284Z,5.40
2023-03-01T15:24:13.034Z,6.40
2023-03-01T15:26:43.218Z,5.30
2023-03-01T15:29:21.171Z,6.00
2023-03-01T15:32:06.414Z,14.20
2023-03-01T15:34:37.492Z,10.20
2023-03-01T15:37:08.660Z,21.50
2023-03-01T15:39:43.932Z,20.30
2023-03-01T15:42:30.578Z,13.50
2023-03-01T15:45:11.158Z,11.90
2023-03-01T15:47:40.748Z,10.10
2023-03-01T15:50:29.096Z,14.10
2023-03-01T15:52:57.882Z,8.80
2023-03-01T15:55:30.800Z,6.10
2023-03-01T15:58:09.555Z,5.80
2023-03-01T16:00:46.292Z,7.00
2023-03-01T16:03:25.702Z,12.30
2023-03-01T16:05:54.387Z,13.00
2023-03-01T16:08:21.851Z,17.80
2023-03-01T16:10:50.645Z,14.20
2023-03-01T16:13:19.885Z,13.60
2023-03-01T16:15:47.516Z,11.50
2023-03-01T16:18:15.346Z,10.30
2023-03-01T16:20:43.718Z,11.90
2023-03-01T16:23:17.635Z,11.80
2023-03-01T16:25:46.037Z,7.20
2023-03-01T16:28:15.048Z,7.00
2023-03-01T16:30:48.347Z,5.30
2023-03-01T16:33:29.595Z,5.00
2023-03-01T16:36:12.085Z,6.00
2023-03-01T16:38:41.114Z,4.90
2023-03-01T16:41:16.414Z,5.70
2023-03-01T16:43:43.956Z,5.30
2023-03-01T16:46:12.818Z,5.20
2023-03-01T16:48:40.497Z,5.20
2023-03-01T16:51:07.948Z,4.70
2023-03-01T16:53:47.736Z,4.80
2023-03-01T16:56:18.249Z,5.30
2023-03-01T16:58:46.174Z,5.20
2023-03-01T17:01:24.942Z,5.70
2023-03-01T17:03:52.343Z,5.50
2023-03-01T17:06:21.092Z,5.40
2023-03-01T17:08:49.305Z,5.80
2023-03-01T17:11:18.312Z,6.30
2023-03-01T17:13:56.457Z,6.50
2023-03-01T17:16:24.136Z,5.90
2023-03-01T17:18:51.486Z,6.10
2023-03-01T17:21:19.014Z,6.30
2023-03-01T17:23:49.886Z,6.60
2023-03-01T17:26:19.980Z,7.10
2023-03-01T17:28:51.964Z,5.90
2023-03-01T17:31:19.532Z,5.90
2023-03-01T17:33:47.092Z,6.60
2023-03-01T17:36:14.433Z,6.50
2023-03-01T17:38:42.934Z,6.00
2023-03-01T17:41:11.796Z,6.30
2023-03-01T17:43:39.356Z,5.80
2023-03-01T17:46:07.191Z,5.70
2023-03-01T17:48:34.663Z,6.50
2023-03-01T17:51:21.914Z,6.00
2023-03-01T17:53:50.138Z,5.70
2023-03-01T17:56:17.669Z,5.80
2023-03-01T17:58:46.598Z,4.70
2023-03-01T18:01:16.533Z,4.60
2023-03-01T18:03:47.736Z,4.80
2023-03-01T18:06:25.442Z,4.70
2023-03-01T18:08:54.767Z,4.60
2023-03-01T18:11:25.152Z,4.90
2023-03-01T18:13:55.217Z,5.30
2023-03-01T18:16:22.982Z,5.70
2023-03-01T18:18:58.037Z,5.20
2023-03-01T18:21:26.082Z,5.80
2023-03-01T18:23:53.515Z,5.30
2023-03-01T18:26:22.154Z,5.80
2023-03-01T18:28:51.265Z,5.50
2023-03-01T18:31:25.538Z,5.20
2023-03-01T18:33:55.007Z,5.90
2023-03-01T18:36:30.233Z,5.60
2023-03-01T18:38:57.797Z,5.70
2023-03-01T18:41:26.081Z,5.80
2023-03-01T18:43:54.085Z,5.60
2023-03-01T18:46:22.017Z,5.80
2023-03-01T18:48:49.691Z,5.20
2023-03-01T18:51:19.034Z,5.90
2023-03-01T18:53:47.741Z,5.50
2023-03-01T18:56:15.152Z,5.10
2023-03-01T18:58:42.720Z,5.00
2023-03-01T19:01:25.118Z,5.50
2023-03-01T19:03:53.371Z,6.00
2023-03-01T19:06:20.905Z,5.60
2023-03-01T19:08:52.691Z,5.50
2023-03-01T19:11:21.487Z,5.30
2023-03-01T19:13:51.508Z,5.50
2023-03-01T19:16:27.119Z,4.80
2023-03-01T19:18:59.978Z,5.30
2023-03-01T19:21:29.279Z,4.60
2023-03-01T19:23:58.098Z,5.70
2023-03-01T19:26:26.585Z,5.40
2023-03-01T19:28:54.834Z,5.10
2023-03-01T19:31:25.529Z,4.50
2023-03-01T19:33:57.056Z,5.40
2023-03-01T19:36:32.929Z,5.30
2023-03-01T19:39:02.523Z,5.60
2023-03-01T19:41:30.017Z,5.70
2023-03-01T19:43:57.950Z,5.90
2023-03-01T19:46:26.094Z,6.00
2023-03-01T19:48:53.909Z,6.10
2023-03-01T19:51:21.441Z,5.60
2023-03-01T19:53:48.865Z,6.10
2023-03-01T19:56:16.381Z,5.30
2023-03-01T19:58:49.925Z,5.20
2023-03-01T20:01:21.477Z,5.10
2023-03-01T20:03:51.638Z,5.30
2023-03-01T20:06:21.368Z,5.00
2023-03-01T20:08:50.695Z,6.10
2023-03-01T20:11:18.890Z,5.30
2023-03-01T20:13:46.282Z,5.70
2023-03-01T20:16:17.707Z,5.50
2023-03-01T20:18:45.733Z,5.50
2023-03-01T20:21:23.906Z,5.30
2023-03-01T20:23:53.053Z,5.90
2023-03-01T20:26:21.218Z,6.00
2023-03-01T20:28:50.522Z,5.80
2023-03-01T20:31:19.522Z,5.40
2023-03-01T20:33:47.076Z,6.30
2023-03-01T20:36:14.896Z,6.80
2023-03-01T20:38:42.550Z,5.90
2023-03-01T20:41:11.585Z,5.90
2023-03-01T20:43:42.377Z,5.50
2023-03-01T20:46:11.619Z,5.60
2023-03-01T20:48:45.141Z,5.60
2023-03-01T20:51:12.944Z,6.50
2023-03-01T20:53:41.544Z,5.60
2023-03-01T20:56:13.982Z,6.30
2023-03-01T20:58:41.556Z,6.30
2023-03-01T21:01:09.720Z,6.00
2023-03-01T21:03:38.559Z,6.40
2023-03-01T21:06:09.860Z,5.90
2023-03-01T21:08:38.219Z,5.00
2023-03-01T21:11:06.458Z,4.80
2023-03-01T21:13:35.278Z,5.70
2023-03-01T21:16:07.719Z,5.00
2023-03-01T21:18:38.133Z,6.00
2023-03-01T21:21:13.731Z,5.70
2023-03-01T21:23:41.648Z,5.60
2023-03-01T21:26:19.044Z,5.60
2023-03-01T21:28:46.743Z,5.80
2023-03-01T21:31:18.074Z,5.40
2023-03-01T21:36:18.397Z,5.80
2023-03-01T21:38:46.991Z,5.30
2023-03-01T21:41:25.631Z,5.10
2023-03-01T21:43:56.935Z,5.70
2023-03-01T21:46:25.187Z,5.30
2023-03-01T21:48:54.329Z,4.80
2023-03-01T21:51:23.937Z,5.20
2023-03-01T21:53:54.210Z,4.80
2023-03-01T21:56:24.719Z,5.30
2023-03-01T21:58:52.794Z,5.40
2023-03-01T22:01:24.123Z,4.90
2023-03-01T22:03:51.548Z,5.10
2023-03-01T22:06:24.240Z,4.70
2023-03-01T22:08:55.363Z,5.10
2023-03-01T22:11:23.757Z,4.60
2023-03-01T22:13:51.968Z,4.70
2023-03-01T22:16:20.428Z,4.80
2023-03-01T22:18:50.744Z,5.50
2023-03-01T22:21:19.221Z,5.10
2023-03-01T22:23:47.863Z,5.40
2023-03-01T22:26:23.209Z,5.10
2023-03-01T22:28:51.478Z,4.50
2023-03-01T22:31:19.291Z,5.40
2023-03-01T22:33:47.161Z,4.40
2023-03-01T22:36:14.481Z,5.30
2023-03-01T22:38:43.130Z,4.90
2023-03-01T22:41:10.878Z,4.70
2023-03-01T22:43:38.735Z,5.10
2023-03-01T22:46:17.344Z,4.70
2023-03-01T22:48:46.417Z,5.00
2023-03-01T22:51:18.458Z,5.40
2023-03-01T22:53:46.086Z,5.50
2023-03-01T22:56:15.958Z,5.20
2023-03-01T22:58:43.544Z,4.70
2023-03-01T23:01:16.091Z,5.30
2023-03-01T23:03:44.773Z,4.90
2023-03-01T23:06:13.081Z,5.60
2023-03-01T23:08:40.811Z,4.70
2023-03-01T23:11:13.577Z,4.90
2023-03-01T23:13:41.242Z,4.80
2023-03-01T23:16:09.393Z,4.90
2023-03-01T23:18:37.355Z,4.90
2023-03-01T23:21:14.028Z,5.30
2023-03-01T23:23:42.036Z,5.20
2023-03-01T23:26:09.568Z,4.80
2023-03-01T23:28:40.128Z,5.10
2023-03-01T23:31:10.886Z,5.00
2023-03-01T23:33:38.398Z,4.90
2023-03-01T23:36:21.663Z,5.30
2023-03-01T23:38:51.796Z,5.80
2023-03-01T23:41:21.324Z,5.50
2023-03-01T23:43:50.476Z,5.30
2023-03-01T23:46:19.458Z,5.40
2023-03-01T23:48:46.948Z,5.50
2023-03-01T23:51:14.730Z,5.00
2023-03-01T23:53:53.832Z,5.50
2023-03-01T23:56:35.791Z,4.50
2023-03-01T23:59:11.648Z,5.40
